createdAt,value
2015-09-02T09:13:19.906Z,73836
2015-09-02T09:13:32.203Z,73833
2015-09-02T09:13:44.640Z,73833
2015-09-02T09:13:56.937Z,73843
2015-09-02T09:14:09.421Z,73847
2015-09-02T09:14:21.862Z,73838
2015-09-02T09:14:34.299Z,73839
2015-09-02T09:14:46.721Z,73841
2015-09-02T09:14:59.112Z,73842
2015-09-02T09:15:11.534Z,73839
2015-09-02T09:15:23.957Z,73834
2015-09-02T09:15:36.363Z,73843
2015-09-02T09:15:48.800Z,73832
2015-09-02T09:16:01.207Z,73840
2015-09-02T09:16:13.613Z,73837
2015-09-02T09:16:26.022Z,73835
2015-09-02T09:16:38.428Z,73832
2015-09-02T09:16:50.866Z,73836
2015-09-02T09:17:03.272Z,73829
2015-09-02T09:17:15.678Z,73834
2015-09-02T09:17:28.070Z,73831
2015-09-02T09:17:40.476Z,73837
2015-09-02T09:17:52.898Z,73833
2015-09-02T09:18:05.320Z,73841
2015-09-02T09:18:17.758Z,73841
2015-09-02T09:18:30.197Z,73832
2015-09-02T09:18:42.619Z,73830
2015-09-02T09:18:55.025Z,73834
2015-09-02T09:19:07.431Z,73833
2015-09-02T09:19:19.838Z,73836
2015-09-02T09:19:32.246Z,73834
2015-09-02T09:19:44.652Z,73831
2015-09-02T09:19:57.058Z,73825
2015-09-02T09:20:09.465Z,73829
2015-09-02T09:20:21.871Z,73825
2015-09-02T09:20:34.279Z,73833
2015-09-02T09:20:46.670Z,73832
2015-09-02T09:20:59.092Z,73830
2015-09-02T09:21:11.514Z,73837
2015-09-02T09:21:23.935Z,73826
2015-09-02T09:21:36.344Z,73841
2015-09-02T09:21:48.781Z,73831
2015-09-02T09:22:01.219Z,73832
2015-09-02T09:22:13.641Z,73832
2015-09-02T09:22:26.078Z,73832
2015-09-02T09:22:38.519Z,73835
2015-09-02T09:22:50.972Z,73836
2015-09-02T09:23:03.425Z,73837
2015-09-02T09:23:15.831Z,73834
2015-09-02T09:23:28.237Z,73839
2015-09-02T09:23:40.645Z,73838
2015-09-02T09:23:53.051Z,73834
2015-09-02T09:24:05.457Z,73841
2015-09-02T09:24:17.926Z,73836
2015-09-02T09:24:29.629Z,73831
2015-09-02T09:24:42.037Z,73835
2015-09-02T09:24:54.459Z,73843
2015-09-02T09:25:06.897Z,73838
2015-09-02T09:25:19.334Z,73834
2015-09-02T09:25:31.756Z,73824
2015-09-02T09:25:44.180Z,73832
2015-09-02T09:25:56.570Z,73833
2015-09-02T09:26:08.977Z,73839
2015-09-02T09:26:21.383Z,73840
2015-09-02T09:26:33.805Z,73832
2015-09-02T09:26:46.213Z,73839
2015-09-02T09:26:58.604Z,73835
2015-09-02T09:27:10.994Z,73837
2015-09-02T09:27:23.385Z,73834
2015-09-02T09:27:35.776Z,73827
2015-09-02T09:27:48.215Z,73834
2015-09-02T09:28:00.637Z,73833
2015-09-02T09:28:13.043Z,73835
2015-09-02T09:28:25.465Z,73838
2015-09-02T09:28:37.168Z,73830
2015-09-02T09:28:49.623Z,73835
2015-09-02T09:29:02.045Z,73837
2015-09-02T09:29:14.483Z,73830
2015-09-02T09:29:26.920Z,73836
2015-09-02T09:29:39.342Z,73832
2015-09-02T09:29:51.798Z,73831
2015-09-02T09:30:04.204Z,73829
2015-09-02T09:30:16.611Z,73827
2015-09-02T09:30:29.017Z,73844
2015-09-02T09:30:41.408Z,73830
2015-09-02T09:30:53.830Z,73829
2015-09-02T09:31:06.252Z,73834
2015-09-02T09:31:18.674Z,73834
2015-09-02T09:31:31.080Z,73827
2015-09-02T09:31:43.502Z,73834
2015-09-02T09:31:55.926Z,73835
2015-09-02T09:32:08.317Z,73833
2015-09-02T09:32:20.723Z,73839
2015-09-02T09:32:33.129Z,73828
2015-09-02T09:32:45.536Z,73829
2015-09-02T09:32:57.944Z,73837
2015-09-02T09:33:10.350Z,73833
2015-09-02T09:33:22.756Z,73824
2015-09-02T09:33:35.366Z,73829
2015-09-02T09:33:47.788Z,73825
2015-09-02T09:34:00.399Z,73825
2015-09-02T09:34:12.368Z,73829
2015-09-02T09:34:25.024Z,73829
2015-09-02T09:34:38.165Z,73828
2015-09-02T09:34:50.602Z,73824
2015-09-02T09:35:02.901Z,73831
2015-09-02T09:35:15.307Z,73820
2015-09-02T09:35:27.713Z,73826
2015-09-02T09:35:40.104Z,73830
2015-09-02T09:35:52.512Z,73828
2015-09-02T09:36:04.919Z,73830
2015-09-02T09:36:16.606Z,73831
2015-09-02T09:36:29.012Z,73831
2015-09-02T09:36:41.419Z,73818
2015-09-02T09:36:53.842Z,73829
2015-09-02T09:37:06.280Z,73830
2015-09-02T09:37:18.671Z,73821
2015-09-02T09:37:31.077Z,73828
2015-09-02T09:37:43.483Z,73823
2015-09-02T09:37:55.891Z,73830
2015-09-02T09:38:08.282Z,73830
2015-09-02T09:38:20.688Z,73825
2015-09-02T09:38:33.126Z,73821
2015-09-02T09:38:45.548Z,73825
2015-09-02T09:38:57.970Z,73831
2015-09-02T09:39:10.392Z,73827
2015-09-02T09:39:22.783Z,73827
2015-09-02T09:39:35.174Z,73831
2015-09-02T09:39:47.580Z,73822
2015-09-02T09:39:59.988Z,73833
2015-09-02T09:40:12.410Z,73828
2015-09-02T09:40:24.832Z,73834
2015-09-02T09:40:37.238Z,73827
2015-09-02T09:40:49.629Z,73834
2015-09-02T09:41:02.038Z,73832
2015-09-02T09:41:14.444Z,73828
2015-09-02T09:41:26.850Z,73826
2015-09-02T09:41:39.257Z,73834
2015-09-02T09:41:51.679Z,73830
2015-09-02T09:42:04.118Z,73833
2015-09-02T09:42:16.524Z,73827
2015-09-02T09:42:28.931Z,73829
2015-09-02T09:42:41.321Z,73826
2015-09-02T09:42:53.727Z,73821
2015-09-02T09:43:06.136Z,73822
2015-09-02T09:43:18.542Z,73822
2015-09-02T09:43:30.948Z,73825
2015-09-02T09:43:43.370Z,73833
2015-09-02T09:43:55.761Z,73825
2015-09-02T09:44:08.091Z,73824
2015-09-02T09:44:20.450Z,73822
2015-09-02T09:44:33.200Z,73824
2015-09-02T09:44:45.622Z,73822
2015-09-02T09:44:57.888Z,73818
2015-09-02T09:45:10.373Z,73824
2015-09-02T09:45:22.811Z,73823
2015-09-02T09:45:35.217Z,73830
2015-09-02T09:45:47.295Z,73822
2015-09-02T09:45:59.639Z,73825
2015-09-02T09:46:11.876Z,73828
2015-09-02T09:46:23.985Z,73826
2015-09-02T09:46:36.251Z,73818
2015-09-02T09:46:48.673Z,73826
2015-09-02T09:47:00.954Z,73824
2015-09-02T09:47:13.691Z,73823
2015-09-02T09:47:25.972Z,73826
2015-09-02T09:47:38.066Z,73816
2015-09-02T09:47:50.347Z,73817
2015-09-02T09:48:02.628Z,73820
2015-09-02T09:48:14.911Z,73818
2015-09-02T09:48:27.161Z,73826
2015-09-02T09:48:39.427Z,73818
2015-09-02T09:48:51.614Z,73820
2015-09-02T09:49:03.849Z,73824
2015-09-02T09:49:16.115Z,73811
2015-09-02T09:49:28.522Z,73819
2015-09-02T09:49:40.615Z,73814
2015-09-02T09:49:52.897Z,73824
2015-09-02T09:50:05.381Z,73823
2015-09-02T09:50:18.025Z,73821
2015-09-02T09:50:30.322Z,73824
2015-09-02T09:50:42.556Z,73819
2015-09-02T09:50:54.384Z,73818
2015-09-02T09:51:06.572Z,73827
2015-09-02T09:51:18.667Z,73820
2015-09-02T09:51:30.980Z,73821
2015-09-02T09:51:43.308Z,73817
2015-09-02T09:51:55.558Z,73818
2015-09-02T09:52:07.964Z,73817
2015-09-02T09:52:20.215Z,73824
2015-09-02T09:52:32.606Z,73823
2015-09-02T09:52:44.700Z,73820
2015-09-02T09:52:56.793Z,73819
2015-09-02T09:53:08.887Z,73817
2015-09-02T09:53:21.187Z,73825
2015-09-02T09:53:33.609Z,73823
2015-09-02T09:53:49.749Z,73821
2015-09-02T09:54:02.593Z,73819
2015-09-02T09:54:15.249Z,73820
2015-09-02T09:54:28.157Z,73820
2015-09-02T09:54:41.063Z,73817
2015-09-02T09:54:53.500Z,73825
2015-09-02T09:55:05.985Z,73817
2015-09-02T09:55:18.219Z,73820
2015-09-02T09:55:30.628Z,73828
2015-09-02T09:55:43.019Z,73820
2015-09-02T09:55:55.441Z,73824
2015-09-02T09:56:07.832Z,73822
2015-09-02T09:56:20.238Z,73825
2015-09-02T09:56:32.661Z,73821
2015-09-02T09:56:45.083Z,73820
2015-09-02T09:56:57.489Z,73823
2015-09-02T09:57:09.895Z,73821
2015-09-02T09:57:22.301Z,73825
2015-09-02T09:57:34.725Z,73822
2015-09-02T09:57:47.131Z,73822
2015-09-02T09:57:59.553Z,73822
2015-09-02T09:58:11.975Z,73820
2015-09-02T09:58:23.678Z,73820
2015-09-02T09:58:36.088Z,73819
2015-09-02T09:58:48.525Z,73814
2015-09-02T09:59:00.947Z,73821
2015-09-02T09:59:13.369Z,73818
2015-09-02T09:59:25.088Z,73822
2015-09-02T09:59:37.354Z,73815
2015-09-02T09:59:49.776Z,73822
2015-09-02T10:00:02.182Z,73815
2015-09-02T10:00:14.589Z,73817
2015-09-02T10:00:26.276Z,73818
2015-09-02T10:00:38.685Z,73820
2015-09-02T10:00:51.107Z,73820
2015-09-02T10:01:03.529Z,73816
2015-09-02T10:01:15.935Z,73818
2015-09-02T10:01:28.357Z,73823
2015-09-02T10:01:40.764Z,73817
2015-09-02T10:01:53.171Z,73819
2015-09-02T10:02:05.577Z,73823
2015-09-02T10:02:17.249Z,73820
2015-09-02T10:02:29.655Z,73817
2015-09-02T10:02:42.064Z,73821
2015-09-02T10:02:54.486Z,73820
2015-09-02T10:03:06.908Z,73821
2015-09-02T10:03:19.314Z,73821
2015-09-02T10:03:31.736Z,73824
2015-09-02T10:03:44.143Z,73822
2015-09-02T10:03:56.534Z,73827
2015-09-02T10:04:08.956Z,73820
2015-09-02T10:04:21.393Z,73821
2015-09-02T10:04:33.815Z,73819
2015-09-02T10:04:46.239Z,73821
2015-09-02T10:04:58.677Z,73823
2015-09-02T10:05:11.083Z,73823
2015-09-02T10:05:23.489Z,73824
2015-09-02T10:05:35.895Z,73817
2015-09-02T10:05:48.288Z,73821
2015-09-02T10:06:00.679Z,73817
2015-09-02T10:06:13.085Z,73822
2015-09-02T10:06:25.522Z,73823
2015-09-02T10:06:37.929Z,73822
2015-09-02T10:06:50.321Z,73821
2015-09-02T10:07:02.728Z,73818
2015-09-02T10:07:15.134Z,73822
2015-09-02T10:07:27.540Z,73818
2015-09-02T10:07:39.946Z,73820
2015-09-02T10:07:52.355Z,73819
2015-09-02T10:08:04.776Z,73818
2015-09-02T10:08:17.198Z,73819
2015-09-02T10:08:29.589Z,73819
2015-09-02T10:08:41.995Z,73819
2015-09-02T10:08:54.403Z,73820
2015-09-02T10:09:06.825Z,73820
2015-09-02T10:09:19.216Z,73819
2015-09-02T10:09:31.607Z,73817
2015-09-02T10:09:44.044Z,73816
2015-09-02T10:09:56.452Z,73816
2015-09-02T10:10:08.843Z,73816
2015-09-02T10:10:20.562Z,73816
2015-09-02T10:10:32.968Z,73816
2015-09-02T10:10:45.359Z,73814
2015-09-02T10:10:57.814Z,73816
2015-09-02T10:11:10.236Z,73815
2015-09-02T10:11:22.657Z,73816
2015-09-02T10:11:35.064Z,73818
2015-09-02T10:11:47.470Z,73816
2015-09-02T10:11:59.863Z,73816
2015-09-02T10:12:12.269Z,73815
2015-09-02T10:12:24.534Z,73818
2015-09-02T10:12:36.988Z,73813
2015-09-02T10:12:49.394Z,73817
2015-09-02T10:13:01.818Z,73815
2015-09-02T10:13:14.224Z,73815
2015-09-02T10:13:26.615Z,73817
2015-09-02T10:13:38.318Z,73817
2015-09-02T10:13:50.708Z,73817
2015-09-02T10:14:03.117Z,73821
2015-09-02T10:14:14.820Z,73818
2015-09-02T10:14:27.226Z,73818
2015-09-02T10:14:39.648Z,73819
2015-09-02T10:14:52.054Z,73820
2015-09-02T10:15:04.462Z,73818
2015-09-02T10:15:16.869Z,73819
2015-09-02T10:15:29.290Z,73820
2015-09-02T10:15:41.712Z,73818
2015-09-02T10:15:54.119Z,73819
2015-09-02T10:16:06.558Z,73823
2015-09-02T10:16:18.964Z,73819
2015-09-02T10:16:31.355Z,73821
2015-09-02T10:16:43.761Z,73821
2015-09-02T10:16:55.449Z,73819
2015-09-02T10:17:07.873Z,73824
2015-09-02T10:17:20.279Z,73821
2015-09-02T10:17:32.701Z,73822
2015-09-02T10:17:45.123Z,73825
2015-09-02T10:17:57.529Z,73825
2015-09-02T10:18:09.921Z,73824
2015-09-02T10:18:22.328Z,73821
2015-09-02T10:18:34.734Z,73826
2015-09-02T10:18:47.125Z,73821
2015-09-02T10:18:59.562Z,73826
2015-09-02T10:19:11.970Z,73825
2015-09-02T10:19:23.689Z,73827
2015-09-02T10:19:36.095Z,73825
2015-09-02T10:19:48.517Z,73830
2015-09-02T10:20:00.908Z,73828
2015-09-02T10:20:13.316Z,73825
2015-09-02T10:20:25.722Z,73830
2015-09-02T10:20:38.113Z,73826
2015-09-02T10:20:50.535Z,73825
2015-09-02T10:21:02.957Z,73832
2015-09-02T10:21:15.365Z,73831
2015-09-02T10:21:27.756Z,73828
2015-09-02T10:21:40.162Z,73834
2015-09-02T10:21:52.568Z,73833
2015-09-02T10:22:04.959Z,73831
2015-09-02T10:22:17.351Z,73835
2015-09-02T10:22:29.789Z,73833
2015-09-02T10:22:42.195Z,73831
2015-09-02T10:22:54.617Z,73830
2015-09-02T10:23:07.023Z,73833
2015-09-02T10:23:19.415Z,73833
2015-09-02T10:23:31.837Z,73829
2015-09-02T10:23:44.227Z,73827
2015-09-02T10:23:56.634Z,73828
2015-09-02T10:24:09.040Z,73830
2015-09-02T10:24:21.465Z,73830
2015-09-02T10:24:33.871Z,73834
2015-09-02T10:24:46.262Z,73829
2015-09-02T10:24:58.652Z,73832
2015-09-02T10:25:11.074Z,73828
2015-09-02T10:25:23.482Z,73833
2015-09-02T10:25:35.873Z,73834
2015-09-02T10:25:48.279Z,73829
2015-09-02T10:26:00.701Z,73827
2015-09-02T10:26:13.107Z,73831
2015-09-02T10:26:25.515Z,73832
2015-09-02T10:26:37.921Z,73828
2015-09-02T10:26:50.311Z,73831
2015-09-02T10:27:02.718Z,73826
2015-09-02T10:27:15.124Z,73831
2015-09-02T10:27:27.533Z,73827
2015-09-02T10:27:39.971Z,73824
2015-09-02T10:27:52.377Z,73830
2015-09-02T10:28:04.064Z,73832
2015-09-02T10:28:16.455Z,73829
2015-09-02T10:28:28.848Z,73823
2015-09-02T10:28:41.254Z,73830
2015-09-02T10:28:53.645Z,73832
2015-09-02T10:29:06.066Z,73835
2015-09-02T10:29:18.488Z,73832
2015-09-02T10:29:30.912Z,73834
2015-09-02T10:29:43.318Z,73833
2015-09-02T10:29:55.568Z,73832
2015-09-02T10:30:07.256Z,73831
2015-09-02T10:30:19.647Z,73828
2015-09-02T10:30:32.054Z,73833
2015-09-02T10:30:43.757Z,73835
2015-09-02T10:30:56.179Z,73832
2015-09-02T10:31:08.585Z,73836
2015-09-02T10:31:20.273Z,73834
2015-09-02T10:31:32.712Z,73833
2015-09-02T10:31:45.118Z,73831
2015-09-02T10:31:57.525Z,73836
2015-09-02T10:32:09.212Z,73834
2015-09-02T10:32:21.618Z,73832
2015-09-02T10:32:33.350Z,73834
2015-09-02T10:32:45.756Z,73833
2015-09-02T10:32:58.163Z,73829
2015-09-02T10:33:10.553Z,73835
2015-09-02T10:33:22.959Z,73833
2015-09-02T10:33:35.362Z,73836
2015-09-02T10:33:47.768Z,73834
2015-09-02T10:34:00.190Z,73833
2015-09-02T10:34:12.612Z,73833
2015-09-02T10:34:25.018Z,73834
2015-09-02T10:34:37.422Z,73830
2015-09-02T10:34:49.672Z,73836
2015-09-02T10:35:02.063Z,73833
2015-09-02T10:35:14.469Z,73832
2015-09-02T10:35:26.875Z,73835
2015-09-02T10:35:39.295Z,73833
2015-09-02T10:35:51.717Z,73835
2015-09-02T10:36:04.123Z,73841
2015-09-02T10:36:16.530Z,73835
2015-09-02T10:36:28.936Z,73833
2015-09-02T10:36:41.340Z,73833
2015-09-02T10:36:53.746Z,73833
2015-09-02T10:37:06.168Z,73837
2015-09-02T10:37:18.574Z,73834
2015-09-02T10:37:30.996Z,73832
2015-09-02T10:37:43.408Z,73833
2015-09-02T10:37:55.799Z,73833
2015-09-02T10:38:08.221Z,73830
2015-09-02T10:38:20.611Z,73832
2015-09-02T10:38:33.017Z,73835
2015-09-02T10:38:45.430Z,73830
2015-09-02T10:38:57.852Z,73831
2015-09-02T10:39:10.273Z,73832
2015-09-02T10:39:22.664Z,73830
2015-09-02T10:39:35.070Z,73837
2015-09-02T10:39:47.484Z,73833
2015-09-02T10:39:59.874Z,73833
2015-09-02T10:40:12.280Z,73833
2015-09-02T10:40:24.687Z,73828
2015-09-02T10:40:37.093Z,73829
2015-09-02T10:40:49.521Z,73833
2015-09-02T10:41:01.911Z,73829
2015-09-02T10:41:14.318Z,73831
2015-09-02T10:41:26.005Z,73830
2015-09-02T10:41:38.396Z,73833
2015-09-02T10:41:50.823Z,73827
2015-09-02T10:42:03.229Z,73830
2015-09-02T10:42:15.651Z,73826
2015-09-02T10:42:28.057Z,73829
2015-09-02T10:42:40.448Z,73824
2015-09-02T10:42:52.857Z,73823
2015-09-02T10:43:05.263Z,73829
2015-09-02T10:43:17.654Z,73828
2015-09-02T10:43:30.044Z,73828
2015-09-02T10:43:41.748Z,73827
2015-09-02T10:43:54.172Z,73824
2015-09-02T10:44:06.594Z,73825
2015-09-02T10:44:18.985Z,73825
2015-09-02T10:44:30.672Z,73828
2015-09-02T10:44:43.079Z,73829
2015-09-02T10:44:55.489Z,73829
2015-09-02T10:45:07.895Z,73824
2015-09-02T10:45:20.301Z,73824
2015-09-02T10:45:32.723Z,73826
2015-09-02T10:45:45.130Z,73828
2015-09-02T10:45:57.539Z,73825
2015-09-02T10:46:09.929Z,73830
2015-09-02T10:46:22.336Z,73826
2015-09-02T10:46:34.742Z,73825
2015-09-02T10:46:47.148Z,73829
2015-09-02T10:46:59.573Z,73829
2015-09-02T10:47:11.979Z,73828
2015-09-02T10:47:24.401Z,73832
2015-09-02T10:47:36.792Z,73824
2015-09-02T10:47:49.198Z,73827
2015-09-02T10:48:01.607Z,73826
2015-09-02T10:48:14.014Z,73825
2015-09-02T10:48:26.404Z,73833
2015-09-02T10:48:38.826Z,73827
2015-09-02T10:48:51.248Z,73828
2015-09-02T10:49:03.657Z,73828
2015-09-02T10:49:16.063Z,73829
2015-09-02T10:49:28.470Z,73823
2015-09-02T10:49:40.860Z,73830
2015-09-02T10:49:53.329Z,73832
2015-09-02T10:50:05.598Z,73831
2015-09-02T10:50:18.004Z,73827
2015-09-02T10:50:30.426Z,73831
2015-09-02T10:50:42.832Z,73829
2015-09-02T10:50:55.223Z,73831
2015-09-02T10:51:07.600Z,73831
2015-09-02T10:51:19.990Z,73831
2015-09-02T10:51:32.381Z,73827
2015-09-02T10:51:44.772Z,73831
2015-09-02T10:51:57.193Z,73831
2015-09-02T10:52:09.633Z,73826
2015-09-02T10:52:22.039Z,73828
2015-09-02T10:52:34.445Z,73828
2015-09-02T10:52:46.836Z,73832
2015-09-02T10:52:59.242Z,73831
2015-09-02T10:53:11.635Z,73831
2015-09-02T10:53:24.041Z,73834
2015-09-02T10:53:36.447Z,73828
2015-09-02T10:53:48.869Z,73834
2015-09-02T10:54:01.307Z,73831
2015-09-02T10:54:13.715Z,73832
2015-09-02T10:54:26.106Z,73833
2015-09-02T10:54:38.496Z,73830
2015-09-02T10:54:50.887Z,73829
2015-09-02T10:55:03.293Z,73831
2015-09-02T10:55:15.717Z,73832
2015-09-02T10:55:28.139Z,73835
2015-09-02T10:55:40.545Z,73833
2015-09-02T10:55:52.936Z,73834
2015-09-02T10:56:05.342Z,73829
2015-09-02T10:56:17.751Z,73835
2015-09-02T10:56:30.142Z,73833
2015-09-02T10:56:42.548Z,73830
2015-09-02T10:56:54.954Z,73832
2015-09-02T10:57:07.376Z,73831
2015-09-02T10:57:19.785Z,73830
2015-09-02T10:57:32.222Z,73829
2015-09-02T10:57:44.628Z,73833
2015-09-02T10:57:57.035Z,73834
2015-09-02T10:58:09.425Z,73831
2015-09-02T10:58:21.833Z,73829
2015-09-02T10:58:34.255Z,73829
2015-09-02T10:58:46.677Z,73829
2015-09-02T10:58:59.083Z,73825
2015-09-02T10:59:11.505Z,73835
2015-09-02T10:59:23.897Z,73837
2015-09-02T10:59:36.303Z,73836
2015-09-02T10:59:48.709Z,73828
2015-09-02T11:00:01.100Z,73824
2015-09-02T11:00:13.522Z,73828
2015-09-02T11:00:25.931Z,73825
2015-09-02T11:00:38.337Z,73835
2015-09-02T11:00:50.759Z,73826
2015-09-02T11:01:03.166Z,73825
2015-09-02T11:01:15.556Z,73832
2015-09-02T11:01:27.964Z,73832
2015-09-02T11:01:40.355Z,73829
2015-09-02T11:01:52.793Z,73829
2015-09-02T11:02:05.214Z,73829
2015-09-02T11:02:16.918Z,73825
2015-09-02T11:02:29.340Z,73829
2015-09-02T11:02:41.731Z,73829
2015-09-02T11:02:54.137Z,73826
2015-09-02T11:03:06.528Z,73829
2015-09-02T11:03:18.934Z,73827
2015-09-02T11:03:31.359Z,73825
2015-09-02T11:03:43.781Z,73828
2015-09-02T11:03:56.031Z,73828
2015-09-02T11:04:08.422Z,73824
2015-09-02T11:04:20.843Z,73830
2015-09-02T11:04:33.235Z,73829
2015-09-02T11:04:45.641Z,73829
2015-09-02T11:04:58.063Z,73835
2015-09-02T11:05:10.469Z,73827
2015-09-02T11:05:22.891Z,73828
2015-09-02T11:05:35.316Z,73828
2015-09-02T11:05:47.707Z,73828
2015-09-02T11:06:00.097Z,73831
2015-09-02T11:06:12.504Z,73833
2015-09-02T11:06:24.910Z,73832
2015-09-02T11:06:37.318Z,73831
2015-09-02T11:06:49.724Z,73835
2015-09-02T11:07:02.146Z,73837
2015-09-02T11:07:14.537Z,73830
2015-09-02T11:07:26.943Z,73835
2015-09-02T11:07:39.350Z,73834
2015-09-02T11:07:51.741Z,73835
2015-09-02T11:08:04.132Z,73840
2015-09-02T11:08:16.538Z,73833
2015-09-02T11:08:28.944Z,73832
2015-09-02T11:08:41.369Z,73832
2015-09-02T11:08:53.775Z,73835
2015-09-02T11:09:06.166Z,73828
2015-09-02T11:09:18.557Z,73836
2015-09-02T11:09:30.978Z,73834
2015-09-02T11:09:43.370Z,73835
2015-09-02T11:09:55.776Z,73830
2015-09-02T11:10:08.167Z,73838
2015-09-02T11:10:20.558Z,73837
2015-09-02T11:10:32.933Z,73834
2015-09-02T11:10:45.325Z,73838
2015-09-02T11:10:57.731Z,73837
2015-09-02T11:11:10.122Z,73838
2015-09-02T11:11:22.528Z,73837
2015-09-02T11:11:34.919Z,73843
2015-09-02T11:11:47.343Z,73835
2015-09-02T11:11:59.749Z,73837
2015-09-02T11:12:12.155Z,73842
2015-09-02T11:12:24.562Z,73840
2015-09-02T11:12:36.968Z,73848
2015-09-02T11:12:49.360Z,73850
2015-09-02T11:13:01.767Z,73847
2015-09-02T11:13:14.173Z,73840
2015-09-02T11:13:26.579Z,73842
2015-09-02T11:13:39.001Z,73847
2015-09-02T11:13:51.410Z,73846
2015-09-02T11:14:03.801Z,73840
2015-09-02T11:14:16.192Z,73846
2015-09-02T11:14:28.598Z,73845
2015-09-02T11:14:40.988Z,73840
2015-09-02T11:14:53.412Z,73842
2015-09-02T11:15:05.819Z,73842
2015-09-02T11:15:18.240Z,73842
2015-09-02T11:15:30.631Z,73840
2015-09-02T11:15:43.053Z,73840
2015-09-02T11:15:55.446Z,73835
2015-09-02T11:16:07.852Z,73836
2015-09-02T11:16:20.258Z,73836
2015-09-02T11:16:32.664Z,73832
2015-09-02T11:16:45.086Z,73835
2015-09-02T11:16:57.493Z,73837
2015-09-02T11:17:09.900Z,73834
2015-09-02T11:17:22.306Z,73834
2015-09-02T11:17:34.697Z,73837
2015-09-02T11:17:47.103Z,73835
2015-09-02T11:17:59.511Z,73834
2015-09-02T11:18:11.917Z,73833
2015-09-02T11:18:24.339Z,73839
2015-09-02T11:18:36.745Z,73833
2015-09-02T11:18:49.152Z,73841
2015-09-02T11:19:01.560Z,73835
2015-09-02T11:19:13.951Z,73838
2015-09-02T11:19:26.357Z,73839
2015-09-02T11:19:38.763Z,73837
2015-09-02T11:19:51.169Z,73838
2015-09-02T11:20:03.593Z,73835
2015-09-02T11:20:16.015Z,73844
2015-09-02T11:20:28.421Z,73840
2015-09-02T11:20:40.812Z,73844
2015-09-02T11:20:53.218Z,73840
2015-09-02T11:21:05.611Z,73839
2015-09-02T11:21:18.017Z,73837
2015-09-02T11:21:30.423Z,73841
2015-09-02T11:21:42.845Z,73838
2015-09-02T11:21:55.251Z,73841
2015-09-02T11:22:07.660Z,73837
2015-09-02T11:22:20.066Z,73845
2015-09-02T11:22:32.457Z,73845
2015-09-02T11:22:44.863Z,73839
2015-09-02T11:22:57.269Z,73836
2015-09-02T11:23:09.678Z,73841
2015-09-02T11:23:22.100Z,73839
2015-09-02T11:23:34.350Z,73840
2015-09-02T11:23:46.756Z,73837
2015-09-02T11:23:59.147Z,73839
2015-09-02T11:24:11.540Z,73836
2015-09-02T11:24:23.946Z,73841
2015-09-02T11:24:36.352Z,73840
2015-09-02T11:24:48.758Z,73836
2015-09-02T11:25:01.180Z,73836
2015-09-02T11:25:13.603Z,73836
2015-09-02T11:25:25.994Z,73831
2015-09-02T11:25:38.400Z,73834
2015-09-02T11:25:50.088Z,73839
2015-09-02T11:26:02.478Z,73836
2015-09-02T11:26:14.886Z,73833
2015-09-02T11:26:27.308Z,73833
2015-09-02T11:26:39.715Z,73837
2015-09-02T11:26:52.136Z,73841
2015-09-02T11:27:04.527Z,73841
2015-09-02T11:27:16.935Z,73839
2015-09-02T11:27:29.326Z,73837
2015-09-02T11:27:41.732Z,73831
2015-09-02T11:27:54.154Z,73833
2015-09-02T11:28:05.857Z,73822
2015-09-02T11:28:18.265Z,73835
2015-09-02T11:28:30.703Z,73834
2015-09-02T11:28:43.109Z,73834
2015-09-02T11:28:58.500Z,73836
2015-09-02T11:29:10.907Z,73834
2015-09-02T11:29:23.298Z,73839
2015-09-02T11:29:35.688Z,73838
2015-09-02T11:29:48.110Z,73834
2015-09-02T11:30:00.532Z,73833
2015-09-02T11:30:12.941Z,73830
2015-09-02T11:30:25.348Z,73830
2015-09-02T11:30:37.738Z,73828
2015-09-02T11:30:50.144Z,73830
2015-09-02T11:31:01.848Z,73835
2015-09-02T11:31:14.240Z,73840
2015-09-02T11:31:26.646Z,73845
2015-09-02T11:31:39.100Z,73842
2015-09-02T11:31:51.537Z,73845
2015-09-02T11:32:03.928Z,73844
2015-09-02T11:32:16.320Z,73849
2015-09-02T11:32:28.695Z,73850
2015-09-02T11:32:41.086Z,73852
2015-09-02T11:32:53.461Z,73858
2015-09-02T11:33:05.852Z,73863
2015-09-02T11:33:18.275Z,73863
2015-09-02T11:33:30.697Z,73860
2015-09-02T11:33:43.088Z,73866
2015-09-02T11:33:55.494Z,73862
2015-09-02T11:34:07.885Z,73859
2015-09-02T11:34:20.292Z,73855
2015-09-02T11:34:32.683Z,73860
2015-09-02T11:34:45.105Z,73869
2015-09-02T11:34:57.526Z,73864
2015-09-02T11:35:09.933Z,73868
2015-09-02T11:35:22.342Z,73863
2015-09-02T11:35:34.748Z,73869
2015-09-02T11:35:47.154Z,73865
2015-09-02T11:35:59.545Z,73864
2015-09-02T11:36:11.951Z,73866
2015-09-02T11:36:24.344Z,73864
2015-09-02T11:36:36.766Z,73864
2015-09-02T11:36:49.172Z,73865
2015-09-02T11:37:01.578Z,73869
2015-09-02T11:37:13.969Z,73865
2015-09-02T11:37:26.392Z,73860
2015-09-02T11:37:38.798Z,73862
2015-09-02T11:37:51.189Z,73862
2015-09-02T11:38:03.611Z,73866
2015-09-02T11:38:16.032Z,73868
2015-09-02T11:38:28.457Z,73876
2015-09-02T11:38:40.848Z,73868
2015-09-02T11:38:53.254Z,73871
2015-09-02T11:39:05.723Z,73868
2015-09-02T11:39:18.129Z,73869
2015-09-02T11:39:30.522Z,73867
2015-09-02T11:39:42.928Z,73860
2015-09-02T11:39:55.350Z,73857
2015-09-02T11:40:07.756Z,73855
2015-09-02T11:40:20.162Z,73851
2015-09-02T11:40:32.555Z,73847
2015-09-02T11:40:44.961Z,73840
2015-09-02T11:40:57.336Z,73842
2015-09-02T11:41:09.743Z,73834
2015-09-02T11:41:22.164Z,73837
2015-09-02T11:41:34.588Z,73834
2015-09-02T11:41:46.995Z,73831
2015-09-02T11:41:59.401Z,73841
2015-09-02T11:42:11.791Z,73840
2015-09-02T11:42:24.198Z,73844
2015-09-02T11:42:36.637Z,73848
2015-09-02T11:42:49.028Z,73845
2015-09-02T11:43:00.715Z,73843
2015-09-02T11:43:13.137Z,73838
2015-09-02T11:43:25.559Z,73839
2015-09-02T11:43:37.951Z,73838
2015-09-02T11:43:50.357Z,73836
2015-09-02T11:44:02.748Z,73839
2015-09-02T11:44:15.154Z,73836
2015-09-02T11:44:27.560Z,73836
2015-09-02T11:44:39.968Z,73845
2015-09-02T11:44:52.390Z,73841
2015-09-02T11:45:04.812Z,73849
2015-09-02T11:45:17.203Z,73848
2015-09-02T11:45:29.593Z,73845
2015-09-02T11:45:42.002Z,73847
2015-09-02T11:45:54.408Z,73837
2015-09-02T11:46:06.798Z,73837
2015-09-02T11:46:19.236Z,73831
2015-09-02T11:46:31.642Z,73838
2015-09-02T11:46:44.067Z,73840
2015-09-02T11:46:56.473Z,73841
2015-09-02T11:47:08.161Z,73844
2015-09-02T11:47:20.551Z,73845
2015-09-02T11:47:32.958Z,73846
2015-09-02T11:47:45.366Z,73853
2015-09-02T11:47:57.772Z,73854
2015-09-02T11:48:10.194Z,73854
2015-09-02T11:48:22.616Z,73855
2015-09-02T11:48:35.007Z,73857
2015-09-02T11:48:47.415Z,73854
2015-09-02T11:48:59.821Z,73850
2015-09-02T11:49:12.227Z,73846
2015-09-02T11:49:24.634Z,73841
2015-09-02T11:49:37.040Z,73842
2015-09-02T11:49:49.307Z,73838
2015-09-02T11:50:01.589Z,73844
2015-09-02T11:50:14.011Z,73837
2015-09-02T11:50:26.448Z,73836
2015-09-02T11:50:38.870Z,73830
2015-09-02T11:50:51.325Z,73829
2015-09-02T11:51:03.591Z,73832
2015-09-02T11:51:16.013Z,73831
2015-09-02T11:51:28.372Z,73826
2015-09-02T11:51:40.778Z,73828
2015-09-02T11:51:53.185Z,73830
2015-09-02T11:52:05.607Z,73831
2015-09-02T11:52:17.998Z,73831
2015-09-02T11:52:30.404Z,73835
2015-09-02T11:52:42.810Z,73835